Time;durP1;ratioP1;P1;durP2;ratioP2;P2;SDS_P1;SDS_P2;PMS_P1;PMS_P2;Temp;Humidity;BMP_temperature;BMP_pressure;BME280_temperature;BME280_humidity;BME280_pressure;Samples;Min_cycle;Max_cycle;Signal;HPM_P1;HPM_P2
2022/05/13 00:00:23;;;;;;;4.90;4.40;;;;;;;15.72;100.00;62483.38;5091705;28;20260;-72
2022/05/13 00:02:50;;;;;;;5.93;4.57;;;;;;;15.76;100.00;62489.72;5091562;28;20191;-74
2022/05/13 00:05:17;;;;;;;5.40;4.50;;;;;;;15.67;100.00;62477.47;5091922;28;20199;-74
2022/05/13 00:07:44;;;;;;;6.13;4.43;;;;;;;15.62;100.00;62475.19;5091871;28;20224;-73
2022/05/13 00:10:12;;;;;;;6.90;4.40;;;;;;;15.64;100.00;62474.78;5091478;28;20230;-72
2022/05/13 00:12:41;;;;;;;6.03;4.33;;;;;;;15.48;100.00;62460.09;5091563;28;20249;-74
2022/05/13 00:15:12;;;;;;;5.63;4.80;;;;;;;15.56;100.00;62466.16;5091465;28;20228;-72
2022/05/13 00:17:40;;;;;;;5.30;4.50;;;;;;;15.55;100.00;62462.53;5091400;28;20264;-73
2022/05/13 00:20:09;;;;;;;5.73;4.63;;;;;;;15.53;100.00;62462.94;5091590;28;20199;-72
2022/05/13 00:22:43;;;;;;;7.10;4.50;;;;;;;15.43;100.00;62449.06;5091525;28;20666;-72
2022/05/13 00:25:16;;;;;;;6.80;4.40;;;;;;;15.37;100.00;62443.13;5091468;28;20194;-74
2022/05/13 00:27:43;;;;;;;4.83;4.33;;;;;;;14.57;100.00;62362.19;5091449;28;20268;-74
2022/05/13 00:30:12;;;;;;;6.47;4.70;;;;;;;15.22;100.00;62426.97;5090580;28;20235;-72
2022/05/13 00:32:41;;;;;;;6.30;4.70;;;;;;;14.49;100.00;62353.56;5091605;28;20192;-73
2022/05/13 00:35:09;;;;;;;5.00;4.50;;;;;;;14.73;100.00;62379.38;5091288;28;20265;-73
2022/05/13 00:37:36;;;;;;;5.33;4.43;;;;;;;15.14;100.00;62415.78;5091574;28;20231;-72
2022/05/13 00:40:06;;;;;;;5.73;4.00;;;;;;;15.12;100.00;62416.22;5091319;28;20207;-71
2022/05/13 00:42:32;;;;;;;7.37;4.90;;;;;;;15.15;100.00;62424.59;5092788;28;20628;-73
2022/05/13 00:44:59;;;;;;;5.47;4.23;;;;;;;15.13;100.00;62422.44;5095157;28;20204;-72
2022/05/13 00:47:27;;;;;;;4.40;3.90;;;;;;;15.12;100.00;62418.78;5095799;28;20578;-72
2022/05/13 00:49:56;;;;;;;6.93;4.80;;;;;;;15.04;100.00;62410.16;5095907;28;20277;-75
2022/05/13 00:52:24;;;;;;;7.13;4.27;;;;;;;15.08;100.00;62411.91;5095274;28;20191;-72
2022/05/13 00:54:51;;;;;;;5.23;4.17;;;;;;;15.10;100.00;62416.63;5095035;28;20618;-74
2022/05/13 00:57:18;;;;;;;5.73;3.90;;;;;;;15.01;100.00;62401.81;5095273;28;20199;-73
2022/05/13 00:59:48;;;;;;;8.10;4.47;;;;;;;14.88;100.00;62392.94;5095291;28;20200;-73
2022/05/13 01:02:18;;;;;;;6.93;4.40;;;;;;;14.91;100.00;62396.19;5094917;28;20260;-73
2022/05/13 01:04:46;;;;;;;8.13;5.03;;;;;;;14.93;100.00;62398.34;5095063;28;20202;-75
2022/05/13 01:07:18;;;;;;;4.97;4.37;;;;;;;14.24;100.00;62322.06;5094802;28;20252;-72
2022/05/13 01:09:49;;;;;;;7.73;4.80;;;;;;;14.20;100.00;62328.56;5095313;28;20265;-73
2022/05/13 01:12:20;;;;;;;6.50;4.80;;;;;;;14.64;100.00;62369.69;5095002;28;20621;-72
2022/05/13 01:14:53;;;;;;;6.33;4.70;;;;;;;14.89;100.00;62394.03;5095035;28;20204;-73
2022/05/13 01:20:12;;;;;;;5.63;4.87;;;;;;;14.80;100.00;62386.91;5094581;28;20226;-73
2022/05/13 01:22:45;;;;;;;9.27;5.00;;;;;;;14.71;100.00;62372.09;5095009;28;20253;-73
2022/05/13 01:25:17;;;;;;;8.00;4.70;;;;;;;14.40;100.00;62341.88;5076134;28;20581;-72
2022/05/13 01:27:46;;;;;;;5.43;4.73;;;;;;;14.85;100.00;62390.25;5086541;28;20195;-73
2022/05/13 01:30:17;;;;;;;5.53;4.43;;;;;;;14.78;100.00;62379.63;5094224;28;20223;-71
2022/05/13 01:32:43;;;;;;;6.60;5.00;;;;;;;14.76;100.00;62380.03;5094337;28;20638;-73
2022/05/13 01:35:11;;;;;;;6.50;4.30;;;;;;;14.70;100.00;62368.47;5094792;28;20208;-71
2022/05/13 01:37:38;;;;;;;6.03;4.70;;;;;;;14.58;100.00;62358.13;5094238;28;20276;-72
2022/05/13 01:40:08;;;;;;;10.70;5.30;;;;;;;14.54;100.00;62353.81;5094333;28;20261;-71
2022/05/13 01:42:35;;;;;;;8.83;4.50;;;;;;;14.39;100.00;62338.75;5094151;28;20248;-73
2022/05/13 01:45:03;;;;;;;5.60;4.53;;;;;;;13.85;100.00;62280.16;5093939;28;20245;-73
2022/05/13 01:47:30;;;;;;;6.17;4.57;;;;;;;14.35;100.00;62333.91;5094201;28;20253;-72
2022/05/13 01:49:57;;;;;;;6.07;4.60;;;;;;;14.37;100.00;62336.59;5093921;28;20234;-72
2022/05/13 01:52:25;;;;;;;8.23;4.70;;;;;;;14.36;100.00;62335.53;5094018;28;20195;-73
2022/05/13 01:54:52;;;;;;;6.17;4.60;;;;;;;14.33;100.00;62340.00;5092850;28;20196;-71
2022/05/13 01:57:20;;;;;;;5.07;4.40;;;;;;;14.27;100.00;62325.28;5093669;28;20624;-73
2022/05/13 01:59:47;;;;;;;4.87;4.20;;;;;;;14.18;100.00;62316.16;5093933;28;20229;-71
2022/05/13 02:02:14;;;;;;;7.23;4.07;;;;;;;14.21;100.00;62319.38;5093809;28;20196;-72
2022/05/13 02:04:41;;;;;;;5.67;4.80;;;;;;;14.21;100.00;62321.94;5093722;28;20252;-73
2022/05/13 02:07:08;;;;;;;8.30;4.93;;;;;;;14.22;100.00;62320.47;5094114;28;20195;-72
2022/05/13 02:09:34;;;;;;;5.37;4.70;;;;;;;13.25;100.00;62216.22;5093533;28;20219;-71
2022/05/13 02:12:01;;;;;;;8.40;5.13;;;;;;;14.10;100.00;62310.13;5093320;28;20622;-71
2022/05/13 02:14:29;;;;;;;6.77;4.90;;;;;;;14.12;100.00;62314.84;5093306;28;20195;-73
2022/05/13 02:16:56;;;;;;;8.27;4.93;;;;;;;13.87;100.00;62285.41;5093421;28;20206;-73
2022/05/13 02:19:23;;;;;;;6.20;4.73;;;;;;;13.87;100.00;62282.84;5093472;28;20195;-74
2022/05/13 02:21:52;;;;;;;7.13;4.80;;;;;;;13.73;100.00;62272.91;5093322;28;20195;-71
2022/05/13 02:24:19;;;;;;;6.23;4.97;;;;;;;13.62;100.00;62258.53;5093317;28;20199;-73
2022/05/13 02:26:46;;;;;;;8.37;5.03;;;;;;;13.44;100.00;62234.09;5093184;28;20241;-72
2022/05/13 02:29:14;;;;;;;5.37;4.83;;;;;;;13.46;100.00;62241.34;5093098;28;20281;-72
2022/05/13 02:31:42;;;;;;;7.73;5.43;;;;;;;13.44;100.00;62236.63;5093501;28;20204;-72
2022/05/13 02:34:09;;;;;;;8.37;5.13;;;;;;;13.43;100.00;62240.66;5093366;28;20199;-73
2022/05/13 02:36:36;;;;;;;8.17;5.30;;;;;;;13.42;100.00;62239.59;5092872;28;20293;-73
2022/05/13 02:39:03;;;;;;;5.60;4.73;;;;;;;13.29;100.00;62223.06;5093196;28;20203;-73
2022/05/13 02:41:30;;;;;;;6.93;5.20;;;;;;;13.24;100.00;62220.28;5092930;28;20256;-72
2022/05/13 02:43:56;;;;;;;7.27;4.73;;;;;;;13.19;100.00;62209.78;5092864;28;20248;-73
2022/05/13 02:46:26;;;;;;;6.67;5.13;;;;;;;13.25;100.00;62221.88;5093131;28;20235;-72
2022/05/13 02:48:56;;;;;;;7.50;5.33;;;;;;;13.24;100.00;62218.22;5093140;28;20199;-72
2022/05/13 02:51:23;;;;;;;7.43;5.03;;;;;;;13.19;100.00;62212.34;5092654;28;20281;-72
2022/05/13 02:53:50;;;;;;;8.10;5.30;;;;;;;13.26;100.00;62222.41;5092576;28;20666;-73
2022/05/13 02:56:18;;;;;;;8.93;5.43;;;;;;;13.21;100.00;62211.91;5092559;28;20200;-73
2022/05/13 02:58:46;;;;;;;8.10;5.50;;;;;;;13.30;100.00;62224.16;5092806;28;20196;-73
2022/05/13 03:01:15;;;;;;;7.13;5.13;;;;;;;13.25;100.00;62218.78;5074899;28;20222;-73
2022/05/13 03:03:44;;;;;;;9.00;5.23;;;;;;;13.16;100.00;62209.13;5092572;28;20203;-72
2022/05/13 03:06:13;;;;;;;7.93;6.07;;;;;;;13.04;100.00;62196.22;5092092;28;20743;-71
2022/05/13 03:08:40;;;;;;;9.30;6.50;;;;;;;12.86;100.00;62174.31;5092562;28;20650;-73
2022/05/13 03:11:08;;;;;;;12.93;7.67;;;;;;;13.01;100.00;62192.97;5092401;28;20239;-73
2022/05/13 03:13:35;;;;;;;14.03;7.47;;;;;;;13.06;100.00;62198.91;5092278;28;20191;-73
2022/05/13 03:16:04;;;;;;;20.07;9.23;;;;;;;13.14;100.00;62207.50;5092161;28;20250;-73
2022/05/13 03:18:31;;;;;;;11.57;8.00;;;;;;;12.99;100.00;62185.72;5092177;28;20581;-72
2022/05/13 03:20:58;;;;;;;11.67;7.83;;;;;;;12.76;100.00;62163.59;5092528;28;20200;-72
2022/05/13 03:23:26;;;;;;;14.57;8.23;;;;;;;12.73;100.00;62166.56;5092480;28;20191;-72
2022/05/13 03:25:53;;;;;;;14.67;8.53;;;;;;;12.83;100.00;62179.31;5092282;28;20199;-72
2022/05/13 03:28:20;;;;;;;13.77;8.13;;;;;;;12.88;100.00;62176.47;5092215;28;20200;-74
2022/05/13 03:30:49;;;;;;;21.57;8.23;;;;;;;13.01;100.00;62192.97;5093769;28;20230;-71
2022/05/13 03:33:17;;;;;;;17.63;7.93;;;;;;;13.06;100.00;62201.47;5097204;28;20282;-73
2022/05/13 03:35:44;;;;;;;21.33;8.63;;;;;;;13.09;100.00;62199.03;5092976;28;20203;-72
2022/05/13 03:38:11;;;;;;;20.40;8.20;;;;;;;12.98;100.00;62189.78;5092373;28;20246;-73
2022/05/13 03:40:40;;;;;;;16.13;8.10;;;;;;;13.22;100.00;62216.09;5092136;28;20199;-72
2022/05/13 03:43:07;;;;;;;18.17;8.57;;;;;;;13.37;100.00;62226.56;5091728;28;20252;-73
2022/05/13 03:45:36;;;;;;;12.43;6.53;;;;;;;13.51;100.00;62244.16;5091594;28;20199;-72
2022/05/13 03:48:05;;;;;;;7.83;6.80;;;;;;;13.57;100.00;62250.59;5092007;28;20203;-75
2022/05/13 03:50:33;;;;;;;7.20;5.83;;;;;;;13.41;100.00;62230.84;5091734;28;20231;-71
2022/05/13 03:53:00;;;;;;;21.40;9.93;;;;;;;13.29;100.00;62220.50;5091854;28;20739;-73
2022/05/13 03:55:27;;;;;;;18.57;7.60;;;;;;;13.48;100.00;62241.47;5091809;28;20667;-72
2022/05/13 03:57:55;;;;;;;12.40;6.47;;;;;;;12.70;100.00;62158.22;5091999;28;20199;-72
2022/05/13 04:00:23;;;;;;;9.73;6.30;;;;;;;13.44;100.00;62241.75;5091731;28;20199;-72
2022/05/13 04:02:50;;;;;;;14.87;7.20;;;;;;;13.52;100.00;62250.34;5091960;28;20257;-71
2022/05/13 04:10:45;;;;;;;25.10;8.33;;;;;;;13.92;100.00;62293.34;5091453;28;20237;-72
2022/05/13 04:16:07;;;;;;;18.07;8.70;;;;;;;14.21;100.00;62324.50;5091572;28;20199;-72
2022/05/13 04:18:35;;;;;;;17.67;8.70;;;;;;;14.33;100.00;62332.31;5094745;28;20743;-73
2022/05/13 04:21:04;;;;;;;17.63;8.40;;;;;;;14.39;100.00;62338.22;5095732;28;20211;-72
2022/05/13 04:23:31;;;;;;;18.37;8.93;;;;;;;14.29;100.00;62330.56;5095807;28;20268;-72
2022/05/13 04:25:58;;;;;;;22.17;9.57;;;;;;;14.28;100.00;62326.41;5095299;28;20256;-71
2022/05/13 04:28:27;;;;;;;17.73;9.00;;;;;;;14.22;100.00;62325.59;5095692;28;20249;-73
2022/05/13 04:30:53;;;;;;;25.30;10.00;;;;;;;14.32;100.00;62336.38;5095267;28;20220;-73
2022/05/13 04:33:21;;;;;;;14.77;9.40;;;;;;;14.38;100.00;62339.72;5095569;28;20212;-73
2022/05/13 04:35:49;;;;;;;23.10;9.80;;;;;;;14.65;100.00;62365.66;5095647;28;20203;-72
2022/05/13 04:38:16;;;;;;;26.27;9.83;;;;;;;14.62;100.00;62362.41;5095275;28;20650;-73
2022/05/13 04:40:45;;;;;;;17.70;8.77;;;;;;;14.56;100.00;62356.50;5095523;28;20206;-71
2022/05/13 04:43:11;;;;;;;18.10;8.83;;;;;;;14.84;100.00;62388.66;5095457;28;20249;-72
2022/05/13 04:45:39;;;;;;;18.17;8.90;;;;;;;15.00;100.00;62403.28;5095234;28;20632;-72
2022/05/13 04:48:17;;;;;;;21.43;9.30;;;;;;;14.46;100.00;62345.22;5095335;28;20200;-72
2022/05/13 04:50:49;;;;;;;16.83;8.43;;;;;;;15.14;100.00;62420.94;5095291;28;20230;-72
2022/05/13 04:53:19;;;;;;;13.83;7.80;;;;;;;14.94;100.00;62396.84;5077280;28;20199;-72
2022/05/13 04:55:47;;;;;;;19.83;8.37;;;;;;;15.34;100.00;62439.88;5095111;28;20233;-72
2022/05/13 04:58:14;;;;;;;19.10;9.07;;;;;;;15.52;100.00;62456.72;5095065;28;20207;-73
2022/05/13 05:00:43;;;;;;;24.63;8.00;;;;;;;15.09;100.00;62413.00;5094689;28;20211;-72
2022/05/13 05:03:10;;;;;;;15.47;7.80;;;;;;;15.99;100.00;62512.47;5095770;28;20200;-72
2022/05/13 05:05:36;;;;;;;23.23;8.77;;;;;;;16.11;100.00;62522.28;5094644;28;20199;-72
2022/05/13 05:08:04;;;;;;;25.23;8.47;;;;;;;16.29;100.00;62543.69;5095198;28;20207;-72
2022/05/13 05:10:31;;;;;;;19.97;8.73;;;;;;;15.75;100.00;62489.19;5094334;28;20227;-72
2022/05/13 05:12:59;;;;;;;16.63;8.00;;;;;;;16.31;100.00;62548.41;5094540;28;20592;-73
2022/05/13 05:15:27;;;;;;;14.83;8.37;;;;;;;16.41;100.00;62559.75;5094333;28;20203;-71
2022/05/13 05:17:55;;;;;;;25.13;10.10;;;;;;;16.55;100.00;62571.72;5094725;28;20203;-73
2022/05/13 05:20:22;;;;;;;18.23;8.13;;;;;;;16.71;100.00;62588.97;5094463;28;20203;-73
2022/05/13 05:22:49;;;;;;;23.57;8.30;;;;;;;16.88;100.00;62607.31;5094332;28;20200;-72
2022/05/13 05:25:18;;;;;;;17.33;7.97;;;;;;;16.97;100.00;62614.41;5094435;28;20195;-72
2022/05/13 05:27:45;;;;;;;23.90;8.53;;;;;;;17.10;100.00;62631.03;5094076;28;20719;-72
2022/05/13 05:30:13;;;;;;;20.50;8.53;;;;;;;17.18;100.00;62634.50;5094407;28;20288;-72
2022/05/13 05:32:41;;;;;;;16.83;8.37;;;;;;;17.14;100.00;62632.22;5094669;28;20192;-72
2022/05/13 05:35:15;;;;;;;16.13;7.57;;;;;;;17.42;100.00;62662.94;5094977;28;20552;-71
2022/05/13 05:37:42;;;;;;;14.33;7.13;;;;;;;17.85;100.00;62713.44;5094469;28;20232;-71
2022/05/13 05:40:10;;;;;;;20.03;7.20;;;;;;;18.11;100.00;62738.91;5094638;28;20531;-73
2022/05/13 05:42:37;;;;;;;15.70;7.73;;;;;;;18.34;100.00;62763.72;5094307;28;20196;-72
2022/05/13 05:45:06;;;;;;;21.00;7.07;;;;;;;18.41;100.00;62768.72;5094308;28;20222;-73
2022/05/13 05:47:34;;;;;;;27.53;8.03;;;;;;;18.53;100.00;62782.22;5093868;28;20203;-72
2022/05/13 05:50:02;;;;;;;26.43;7.27;;;;;;;18.66;100.00;62797.75;5094167;28;20192;-73
2022/05/13 05:52:30;;;;;;;26.17;7.53;;;;;;;18.87;100.00;62823.56;5094183;28;20239;-72
2022/05/13 05:57:41;;;;;;;29.13;8.23;;;;;;;19.22;100.00;62858.78;5093978;28;20229;-72
2022/05/13 06:00:10;;;;;;;22.70;8.43;;;;;;;19.42;100.00;62879.31;5093528;28;20666;-72
2022/05/13 06:02:37;;;;;;;22.93;7.63;;;;;;;19.43;100.00;62877.81;5093657;28;20195;-72
2022/05/13 06:05:04;;;;;;;23.20;7.87;;;;;;;19.48;100.00;62883.75;5093726;28;20256;-72
2022/05/13 06:07:33;;;;;;;19.63;7.60;;;;;;;19.41;100.00;62875.66;5093538;28;20658;-72
2022/05/13 06:09:59;;;;;;;25.03;8.00;;;;;;;19.50;100.00;62888.50;5093392;28;20192;-73
2022/05/13 06:12:26;;;;;;;16.70;8.57;;;;;;;19.79;100.00;62914.69;5093281;28;20231;-73
2022/05/13 06:14:53;;;;;;;27.60;7.17;;;;;;;20.06;100.00;62945.91;5093499;28;20195;-72
2022/05/13 06:17:20;;;;;;;27.83;7.60;;;;;;;19.72;100.00;62909.69;5093241;28;20206;-72
2022/05/13 06:19:46;;;;;;;14.10;7.50;;;;;;;19.68;100.00;62910.00;5093359;28;20644;-71
2022/05/13 06:22:13;;;;;;;20.17;7.23;;;;;;;20.21;100.00;62962.13;5093351;28;20268;-71
2022/05/13 06:24:42;;;;;;;29.33;7.77;;;;;;;20.18;100.00;62962.00;5093113;28;20621;-73
2022/05/13 06:27:10;;;;;;;21.73;7.13;;;;;;;20.45;100.00;62988.09;5093377;28;20233;-72
2022/05/13 06:29:37;;;;;;;19.67;7.47;;;;;;;20.67;100.00;63011.34;5092839;28;20306;-72
2022/05/13 06:32:04;;;;;;;16.80;6.93;;;;;;;20.68;100.00;63012.44;5093220;28;20654;-72
2022/05/13 06:34:31;;;;;;;33.87;7.87;;;;;;;20.99;100.00;63046.50;5093286;28;20199;-72
2022/05/13 06:36:58;;;;;;;21.60;7.40;;;;;;;20.99;100.00;63049.09;5092681;28;20783;-73
2022/05/13 06:39:26;;;;;;;20.20;7.00;;;;;;;21.08;100.00;63055.72;5093057;28;20218;-71
2022/05/13 06:41:54;;;;;;;22.00;6.77;;;;;;;21.12;100.00;63060.06;5092756;28;20257;-72
2022/05/13 06:44:21;;;;;;;16.73;6.53;;;;;;;21.12;100.00;63059.50;5093083;28;20626;-72
2022/05/13 06:46:48;;;;;;;23.40;6.80;;;;;;;21.59;100.00;63110.38;5092801;28;20269;-73
2022/05/13 06:49:15;;;;;;;16.67;6.03;;;;;;;21.87;100.00;63137.59;5092855;28;20229;-72
2022/05/13 06:51:42;;;;;;;14.13;5.97;;;;;;;21.62;100.00;63108.44;5092777;28;20223;-72
2022/05/13 06:54:10;;;;;;;16.43;5.77;;;;;;;22.11;100.00;63166.16;5092601;28;20195;-73
2022/05/13 06:56:40;;;;;;;30.07;7.03;;;;;;;22.41;100.00;63201.81;5092603;28;20195;-72
2022/05/13 06:59:08;;;;;;;23.17;6.20;;;;;;;21.31;100.00;63080.09;5092522;28;20199;-73
2022/05/13 07:01:36;;;;;;;11.37;6.07;;;;;;;22.19;100.00;63174.84;5092258;28;20257;-72
2022/05/13 07:04:04;;;;;;;22.63;6.20;;;;;;;22.71;100.00;63230.66;5092508;28;20650;-72
2022/05/13 07:06:31;;;;;;;27.17;6.83;;;;;;;23.15;100.00;63273.13;5092610;28;20200;-72
2022/05/13 07:08:58;;;;;;;22.83;6.60;;;;;;;23.59;100.00;63320.31;5092814;28;20238;-72
2022/05/13 07:11:25;;;;;;;14.53;6.30;;;;;;;23.64;100.00;63331.50;5092692;28;20220;-72
2022/05/13 07:13:52;;;;;;;22.77;5.90;;;;;;;23.81;100.00;63349.94;5092570;28;20246;-73
2022/05/13 07:16:21;;;;;;;23.53;6.40;;;;;;;23.31;100.00;63295.69;5092510;28;20666;-72
2022/05/13 07:18:47;;;;;;;18.37;5.93;;;;;;;23.52;100.00;63315.88;5092147;28;20207;-72
2022/05/13 07:21:15;;;;;;;17.23;5.70;;;;;;;23.12;100.00;63275.63;5092264;28;20291;-72
2022/05/13 07:23:42;;;;;;;13.83;6.27;;;;;;;23.35;100.00;63300.03;5092142;28;20264;-72
2022/05/13 07:26:09;;;;;;;20.27;6.23;;;;;;;23.39;100.00;63299.19;5092371;28;20204;-71
2022/05/13 07:28:38;;;;;;;14.93;5.80;;;;;;;23.69;100.00;63336.91;5091833;28;20220;-71
2022/05/13 07:31:06;;;;;;;14.00;6.20;;;;;;;23.75;100.00;63343.41;5091897;28;20245;-72
2022/05/13 07:33:35;;;;;;;9.87;5.77;;;;;;;24.16;100.00;63382.16;5092262;28;20575;-74
2022/05/13 07:36:07;;;;;;;21.87;5.67;;;;;;;24.42;100.00;63415.59;5092048;28;20560;-71
2022/05/13 07:38:34;;;;;;;17.00;5.30;;;;;;;24.00;100.00;63370.53;5092172;28;20289;-72
2022/05/13 07:41:20;;;;;;;13.90;5.77;;;;;;;24.43;100.00;63416.16;5091969;28;20194;-72
2022/05/13 07:43:48;;;;;;;13.47;5.23;;;;;;;24.56;100.00;63425.56;5091899;28;20216;-73
2022/05/13 07:46:15;;;;;;;14.63;5.37;;;;;;;24.99;100.00;63479.56;5091689;28;20263;-72
2022/05/13 07:48:43;;;;;;;16.57;5.23;;;;;;;25.11;100.00;63490.50;5091742;28;20195;-72
2022/05/13 07:51:11;;;;;;;13.40;5.70;;;;;;;25.17;100.00;63496.50;5091541;28;20287;-72
2022/05/13 07:53:38;;;;;;;13.67;5.50;;;;;;;25.23;100.00;63503.00;5090961;28;20293;-72
2022/05/13 07:56:05;;;;;;;10.73;5.27;;;;;;;25.15;100.00;63494.34;5091809;28;20254;-70
2022/05/13 07:58:32;;;;;;;12.10;5.80;;;;;;;25.49;100.00;63533.88;5091970;28;20208;-73
2022/05/13 08:01:00;;;;;;;8.13;5.07;;;;;;;24.78;100.00;63454.69;5091770;28;20211;-72
2022/05/13 08:03:30;;;;;;;13.33;5.20;;;;;;;24.46;100.00;63419.38;5091597;28;20680;-72
2022/05/13 08:06:03;;;;;;;10.47;5.20;;;;;;;24.66;100.00;63443.69;5091727;28;20196;-71
2022/05/13 08:08:32;;;;;;;9.23;4.90;;;;;;;24.64;100.00;63438.94;5091527;28;20669;-73
2022/05/13 08:11:00;;;;;;;10.07;5.07;;;;;;;24.82;100.00;63458.50;5091777;28;20201;-72
2022/05/13 08:13:30;;;;;;;11.17;5.20;;;;;;;25.54;100.00;63536.69;5091860;28;20199;-71
2022/05/13 08:15:59;;;;;;;10.37;5.07;;;;;;;25.20;92.83;63499.75;5091559;28;20210;-72
2022/05/13 08:18:26;;;;;;;16.07;5.07;;;;;;;25.17;99.42;63496.50;5091432;28;20202;-72
2022/05/13 08:20:53;;;;;;;10.30;5.40;;;;;;;25.05;100.00;63483.47;5091125;28;20267;-73
2022/05/13 08:23:22;;;;;;;10.37;4.37;;;;;;;25.89;98.93;63574.75;5091509;28;20252;-74
2022/05/13 08:25:50;;;;;;;11.33;5.13;;;;;;;25.98;88.36;63583.44;5091074;28;20571;-73
2022/05/13 08:28:19;;;;;;;14.13;5.20;;;;;;;25.87;90.46;63572.56;5091478;28;20248;-73
2022/05/13 08:30:46;;;;;;;13.93;4.67;;;;;;;25.85;98.35;63570.41;5091166;28;20200;-72
2022/05/13 08:33:14;;;;;;;7.97;4.63;;;;;;;26.05;88.52;63593.66;5091123;28;20466;-72
2022/05/13 08:35:45;;;;;;;16.53;5.67;;;;;;;25.94;84.25;63585.38;5091249;28;20256;-73
2022/05/13 08:38:12;;;;;;;12.40;5.03;;;;;;;26.24;78.52;63611.72;5091174;28;20239;-72
2022/05/13 08:41:02;;;;;;;8.17;5.03;;;;;;;26.41;79.48;63632.78;5090991;28;20195;-73
2022/05/13 08:43:35;;;;;;;10.50;4.80;;;;;;;26.41;77.39;63630.72;5091264;28;20196;-73
2022/05/13 08:46:10;;;;;;;8.23;4.67;;;;;;;26.76;73.29;63668.28;5090845;28;20204;-72
2022/05/13 08:48:46;;;;;;;6.57;4.17;;;;;;;26.81;71.16;63676.31;5091127;28;20196;-72
2022/05/13 08:51:17;;;;;;;8.23;4.60;;;;;;;26.84;69.97;63671.75;5091283;28;20256;-72
2022/05/13 08:53:53;;;;;;;11.47;4.00;;;;;;;26.64;66.62;63655.19;5091095;28;20209;-73
2022/05/13 08:56:27;;;;;;;6.43;4.07;;;;;;;26.68;67.22;63659.56;5091002;28;20204;-73
2022/05/13 08:59:00;;;;;;;11.53;4.80;;;;;;;26.86;69.43;63679.16;5090909;28;20200;-72
2022/05/13 09:01:32;;;;;;;6.07;4.23;;;;;;;26.68;68.30;63654.31;5090886;28;20202;-74
2022/05/13 09:04:03;;;;;;;8.43;5.13;;;;;;;26.71;74.04;63662.81;5092824;28;20196;-73
2022/05/13 09:06:39;;;;;;;8.43;4.50;;;;;;;25.33;80.96;63508.13;5094587;28;20196;-72
2022/05/13 09:09:09;;;;;;;8.27;4.70;;;;;;;26.94;75.02;63687.84;5094907;28;20739;-72
2022/05/13 09:11:47;;;;;;;8.80;4.43;;;;;;;26.99;68.10;63693.28;5094372;28;20694;-72
2022/05/13 09:14:25;;;;;;;9.93;4.63;;;;;;;26.94;65.10;63687.84;5076621;28;20199;-73
2022/05/13 09:17:08;;;;;;;12.83;4.60;;;;;;;27.11;67.78;63703.72;5094630;28;20198;-73
2022/05/13 09:19:39;;;;;;;7.30;4.60;;;;;;;27.73;65.57;63775.34;5094551;28;20203;-73
2022/05/13 09:22:08;;;;;;;7.70;4.67;;;;;;;28.17;61.63;63820.66;5094774;28;20276;-73
2022/05/13 09:24:34;;;;;;;8.53;4.53;;;;;;;28.09;63.65;63807.22;5094510;28;20200;-73
2022/05/13 09:27:03;;;;;;;7.40;4.80;;;;;;;28.65;62.77;63872.94;5094123;28;20272;-73
2022/05/13 09:29:38;;;;;;;6.03;3.67;;;;;;;28.77;58.86;63883.38;5092961;28;20216;-73
2022/05/13 09:32:13;;;;;;;9.27;4.30;;;;;;;28.85;61.55;63894.72;5094148;28;20239;-73
2022/05/13 09:34:47;;;;;;;18.83;4.73;;;;;;;29.07;60.26;63918.69;5094408;28;20192;-73
2022/05/13 09:37:20;;;;;;;8.20;4.43;;;;;;;29.02;55.07;63912.69;5094336;28;20228;-72
2022/05/13 09:39:49;;;;;;;5.93;4.00;;;;;;;28.64;57.61;63866.59;5093931;28;20207;-74
2022/05/13 09:42:23;;;;;;;6.07;4.07;;;;;;;28.09;59.59;63809.84;5093939;28;20209;-72
2022/05/13 09:44:52;;;;;;;7.40;3.90;;;;;;;28.11;58.53;63816.75;5093927;28;20258;-72
2022/05/13 09:47:27;;;;;;;5.47;4.37;;;;;;;27.72;59.19;63769.56;5093961;28;20200;-73
2022/05/13 09:49:54;;;;;;;8.50;4.90;;;;;;;27.83;60.89;63783.63;5093681;28;20641;-74
2022/05/13 09:52:29;;;;;;;10.70;4.33;;;;;;;28.50;59.48;63850.78;5093580;28;20223;-72
2022/05/13 09:55:04;;;;;;;11.17;4.27;;;;;;;28.92;55.26;63899.72;5093562;28;20200;-74
2022/05/13 09:57:36;;;;;;;8.07;4.70;;;;;;;29.11;57.14;63920.44;5093916;28;20198;-73
2022/05/13 10:00:08;;;;;;;11.87;4.27;;;;;;;29.10;51.92;63921.41;5093589;28;20204;-73
2022/05/13 10:02:37;;;;;;;7.13;4.00;;;;;;;29.56;50.18;63968.41;5093706;28;20210;-72
2022/05/13 10:05:17;;;;;;;9.90;4.27;;;;;;;30.11;49.51;64033.06;5093320;28;20633;-73
2022/05/13 10:07:56;;;;;;;8.30;4.87;;;;;;;29.77;49.48;63993.94;5093139;28;20202;-73
2022/05/13 10:16:02;;;;;;;9.20;4.17;;;;;;;30.02;47.64;64026.47;5092712;28;20227;-74
2022/05/13 10:18:30;;;;;;;4.97;3.70;;;;;;;30.05;45.37;64027.09;5093167;28;20204;-73
2022/05/13 10:21:02;;;;;;;4.60;3.27;;;;;;;30.37;47.20;64059.38;5093140;28;20208;-73
2022/05/13 10:23:34;;;;;;;13.67;4.30;;;;;;;30.51;46.37;64069.38;5093398;28;20572;-73
2022/05/13 10:26:03;;;;;;;16.87;5.00;;;;;;;30.64;45.52;64088.84;5093148;28;20201;-73
2022/05/13 10:28:37;;;;;;;5.67;3.33;;;;;;;29.51;45.81;63960.88;5093294;28;20262;-73
2022/05/13 10:31:10;;;;;;;14.17;4.17;;;;;;;30.47;48.15;64072.91;5093110;28;20203;-74
2022/05/13 10:33:42;;;;;;;11.53;4.03;;;;;;;30.00;49.33;64024.81;5092996;28;20235;-73
2022/05/13 10:36:13;;;;;;;5.93;3.93;;;;;;;29.84;53.20;63993.69;5092943;28;20203;-72
2022/05/13 10:38:44;;;;;;;5.23;3.80;;;;;;;30.39;51.62;64061.56;5093127;28;20718;-73
2022/05/13 10:41:20;;;;;;;9.43;4.07;;;;;;;30.48;51.28;64071.38;5093154;28;20217;-74
2022/05/13 10:43:53;;;;;;;11.00;3.80;;;;;;;30.88;49.65;64111.31;5092780;28;20576;-74
2022/05/13 10:46:25;;;;;;;5.43;4.13;;;;;;;30.80;47.31;64106.31;5075022;28;20751;-74
2022/05/13 10:48:55;;;;;;;9.20;3.70;;;;;;;31.30;46.47;64160.34;5092646;28;20204;-74
2022/05/13 10:51:26;;;;;;;12.30;4.17;;;;;;;31.44;48.99;64175.09;5092778;28;20562;-73
2022/05/13 10:54:12;;;;;;;6.23;3.60;;;;;;;31.21;47.62;64149.97;5092730;28;20608;-72
2022/05/13 10:56:43;;;;;;;13.23;4.00;;;;;;;31.27;49.32;64156.53;5092617;28;20268;-72
2022/05/13 10:59:27;;;;;;;6.73;3.77;;;;;;;31.06;47.90;64130.97;5092483;28;20191;-73
2022/05/13 11:02:05;;;;;;;9.87;4.37;;;;;;;30.85;48.72;64110.69;5092403;28;20193;-72
2022/05/13 11:04:39;;;;;;;8.27;4.07;;;;;;;30.85;50.10;64108.06;5092613;28;20249;-75
2022/05/13 11:07:16;;;;;;;5.97;3.83;;;;;;;31.02;47.04;64129.22;5092595;28;20204;-73
2022/05/13 11:09:52;;;;;;;12.30;3.97;;;;;;;30.56;48.11;64077.47;5092372;28;20200;-73
2022/05/13 11:12:28;;;;;;;15.67;3.97;;;;;;;31.08;48.41;64133.13;5092582;28;20227;-74
2022/05/13 11:15:08;;;;;;;8.10;3.60;;;;;;;30.90;48.53;64116.13;5092558;28;20196;-73
2022/05/13 11:17:41;;;;;;;7.63;3.80;;;;;;;31.45;48.52;64176.72;5092457;28;20726;-73
2022/05/13 11:20:19;;;;;;;5.93;4.00;;;;;;;31.63;45.61;64187.94;5092320;28;20249;-73
2022/05/13 11:22:53;;;;;;;8.27;3.57;;;;;;;30.94;44.22;64120.50;5092462;28;20236;-72
2022/05/13 11:28:41;;;;;;;8.10;4.40;;;;;;;30.79;49.62;64104.66;5092053;28;20203;-74
2022/05/13 11:31:27;;;;;;;6.93;3.77;;;;;;;31.39;47.63;64169.63;5079250;28;20207;-73
2022/05/13 11:34:05;;;;;;;7.40;3.90;;;;;;;31.32;45.71;64159.34;5091728;28;20630;-72
2022/05/13 11:36:46;;;;;;;9.00;4.20;;;;;;;31.64;46.46;64199.56;5091790;28;20200;-73
2022/05/13 11:39:51;;;;;;;12.37;4.50;;;;;;;31.22;49.96;64148.41;5092281;28;20644;-73
2022/05/13 11:45:35;;;;;;;5.63;4.10;;;;;;;31.22;46.17;64151.06;5090724;28;20200;-73
2022/05/13 11:48:21;;;;;;;6.80;3.30;;;;;;;30.94;46.39;64120.50;5091790;28;20245;-72
2022/05/13 11:50:48;;;;;;;5.60;3.87;;;;;;;30.88;48.19;64113.94;5091639;28;20587;-73
2022/05/13 11:53:47;;;;;;;5.37;3.83;;;;;;;31.31;48.99;64158.78;5091517;28;20239;-73
2022/05/13 11:56:18;;;;;;;5.57;3.73;;;;;;;31.72;47.31;64208.28;5091958;28;20199;-73
2022/05/13 11:58:53;;;;;;;5.60;3.80;;;;;;;31.60;44.73;64193.09;5091625;28;20202;-73
2022/05/13 12:01:57;;;;;;;9.83;3.30;;;;;;;31.97;46.24;64230.34;5088224;28;20671;-73